<?xml version="1.0" encoding="UTF-8" standalone="no" ?>
<gpx xmlns="http://www.topografix.com/GPX/1/1" xmlns:xsi="http://www.w3.org/2001/XMLSchema-instance" xsi:schemaLocation="http://www.topografix.com/GPX/1/1 http://www.topografix.com/GPX/1/1/gpx.xsd" version="1.1" creator="VisuGPX - https://www.visugpx.com">
  <metadata>
    <name>Footing dans le Bois de Clamart</name>
    <desc><![CDATA[Boucle sympa avec pas mal de dénivelée]]></desc>
  </metadata>
  <wpt lat="38.85555" lon="-94.79902">
    <ele>3.01</ele>
    <name><![CDATA[GARMIN]]></name>
  </wpt>
  <wpt lat="50.98288" lon="-1.4639">
    <ele>3.01</ele>
    <name><![CDATA[GRMEUR]]></name>
  </wpt>
  <wpt lat="25.06178" lon="121.64027">
    <ele>3.01</ele>
    <name><![CDATA[GRMTWN]]></name>
  </wpt>
  <wpt lat="43.57746" lon="1.45163">
    <ele>97.22</ele>
    <name><![CDATA[MAP]]></name>
  </wpt>
  <trk>
    <name><![CDATA[ACTIVE LOG: 09 JAN 2011 08:34]]></name>
    <trkseg>
      <trkpt lat="49.00242" lon="1.0891">
        <ele>118.38</ele>
        <time>2011-01-09T07:34:10Z</time>
      </trkpt>
      <trkpt lat="49.00242" lon="1.0891">
        <ele>30.9</ele>
        <time>2011-01-09T07:34:11Z</time>
      </trkpt>
      <trkpt lat="49.00242" lon="1.0891">
        <ele>30.9</ele>
        <time>2011-01-09T07:34:12Z</time>
      </trkpt>
      <trkpt lat="49.00242" lon="1.0891">
        <ele>32.34</ele>
        <time>2011-01-09T07:34:19Z</time>
      </trkpt>
      <trkpt lat="49.00242" lon="1.0891">
        <ele>30.42</ele>
        <time>2011-01-09T07:34:26Z</time>
      </trkpt>
      <trkpt lat="49.00242" lon="1.0891">
        <ele>30.42</ele>
        <time>2011-01-09T07:34:36Z</time>
      </trkpt>
      <trkpt lat="49.00242" lon="1.0891">
        <ele>33.3</ele>
        <time>2011-01-09T07:34:43Z</time>
      </trkpt>
      <trkpt lat="49.00242" lon="1.0891">
        <ele>28.5</ele>
        <time>2011-01-09T07:34:44Z</time>
      </trkpt>
      <trkpt lat="49.00242" lon="1.0891">
        <ele>30.9</ele>
        <time>2011-01-09T07:34:46Z</time>
      </trkpt>
      <trkpt lat="49.00242" lon="1.0891">
        <ele>30.9</ele>
        <time>2011-01-09T07:34:47Z</time>
      </trkpt>
      <trkpt lat="49.00242" lon="1.0891">
        <ele>29.46</ele>
        <time>2011-01-09T07:34:48Z</time>
      </trkpt>
      <trkpt lat="49.00242" lon="1.0891">
        <ele>32.34</ele>
        <time>2011-01-09T07:34:50Z</time>
      </trkpt>
      <trkpt lat="49.00242" lon="1.0891">
        <ele>30.42</ele>
        <time>2011-01-09T07:34:51Z</time>
      </trkpt>
      <trkpt lat="49.00242" lon="1.0891">
        <ele>32.34</ele>
        <time>2011-01-09T07:34:52Z</time>
      </trkpt>
      <trkpt lat="49.00242" lon="1.0891">
        <ele>30.42</ele>
        <time>2011-01-09T07:34:54Z</time>
      </trkpt>
      <trkpt lat="49.00242" lon="1.0891">
        <ele>28.02</ele>
        <time>2011-01-09T07:34:56Z</time>
      </trkpt>
      <trkpt lat="49.00242" lon="1.0891">
        <ele>32.82</ele>
        <time>2011-01-09T07:34:57Z</time>
      </trkpt>
      <trkpt lat="49.00242" lon="1.0891">
        <ele>33.78</ele>
        <time>2011-01-09T07:35:02Z</time>
      </trkpt>
      <trkpt lat="49.00242" lon="1.0891">
        <ele>30.9</ele>
        <time>2011-01-09T07:35:05Z</time>
      </trkpt>
      <trkpt lat="49.00242" lon="1.0891">
        <ele>32.34</ele>
        <time>2011-01-09T07:35:06Z</time>
      </trkpt>
      <trkpt lat="49.00242" lon="1.0891">
        <ele>31.38</ele>
        <time>2011-01-09T07:35:15Z</time>
      </trkpt>
      <trkpt lat="49.00242" lon="1.0891">
        <ele>29.46</ele>
        <time>2011-01-09T07:35:16Z</time>
      </trkpt>
      <trkpt lat="49.00242" lon="1.0891">
        <ele>32.82</ele>
        <time>2011-01-09T07:35:17Z</time>
      </trkpt>
      <trkpt lat="49.00242" lon="1.0891">
        <ele>31.38</ele>
        <time>2011-01-09T07:35:21Z</time>
      </trkpt>
      <trkpt lat="49.00242" lon="1.0891">
        <ele>29.94</ele>
        <time>2011-01-09T07:35:22Z</time>
      </trkpt>
      <trkpt lat="49.00242" lon="1.0891">
        <ele>34.26</ele>
        <time>2011-01-09T07:35:23Z</time>
      </trkpt>
      <trkpt lat="49.00242" lon="1.0891">
        <ele>30.9</ele>
        <time>2011-01-09T07:35:25Z</time>
      </trkpt>
      <trkpt lat="49.00242" lon="1.0891">
        <ele>32.82</ele>
        <time>2011-01-09T07:35:29Z</time>
      </trkpt>
      <trkpt lat="49.00242" lon="1.0891">
        <ele>30.9</ele>
        <time>2011-01-09T07:35:31Z</time>
      </trkpt>
      <trkpt lat="49.00242" lon="1.0891">
        <ele>32.34</ele>
        <time>2011-01-09T07:35:33Z</time>
      </trkpt>
      <trkpt lat="49.00242" lon="1.0891">
        <ele>30.9</ele>
        <time>2011-01-09T07:35:34Z</time>
      </trkpt>
      <trkpt lat="49.00242" lon="1.0891">
        <ele>33.3</ele>
        <time>2011-01-09T07:35:35Z</time>
      </trkpt>
      <trkpt lat="49.00242" lon="1.0891">
        <ele>32.82</ele>
        <time>2011-01-09T07:35:43Z</time>
      </trkpt>
      <trkpt lat="49.00242" lon="1.0891">
        <ele>29.94</ele>
        <time>2011-01-09T07:35:44Z</time>
      </trkpt>
      <trkpt lat="49.00242" lon="1.0891">
        <ele>32.34</ele>
        <time>2011-01-09T07:35:46Z</time>
      </trkpt>
      <trkpt lat="49.00242" lon="1.0891">
        <ele>29.46</ele>
        <time>2011-01-09T07:35:48Z</time>
      </trkpt>
      <trkpt lat="49.00242" lon="1.0891">
        <ele>28.02</ele>
        <time>2011-01-09T07:35:50Z</time>
      </trkpt>
      <trkpt lat="49.00242" lon="1.0891">
        <ele>31.38</ele>
        <time>2011-01-09T07:35:51Z</time>
      </trkpt>
      <trkpt lat="49.00242" lon="1.0891">
        <ele>31.38</ele>
        <time>2011-01-09T07:35:55Z</time>
      </trkpt>
      <trkpt lat="49.00242" lon="1.0891">
        <ele>29.94</ele>
        <time>2011-01-09T07:35:58Z</time>
      </trkpt>
      <trkpt lat="49.00242" lon="1.0891">
        <ele>33.3</ele>
        <time>2011-01-09T07:36:01Z</time>
      </trkpt>
      <trkpt lat="49.00242" lon="1.0891">
        <ele>28.5</ele>
        <time>2011-01-09T07:36:07Z</time>
      </trkpt>
      <trkpt lat="49.00242" lon="1.0891">
        <ele>29.94</ele>
        <time>2011-01-09T07:36:08Z</time>
      </trkpt>
      <trkpt lat="49.00242" lon="1.0891">
        <ele>30.9</ele>
        <time>2011-01-09T07:36:12Z</time>
      </trkpt>
      <trkpt lat="49.00242" lon="1.0891">
        <ele>28.5</ele>
        <time>2011-01-09T07:36:17Z</time>
      </trkpt>
      <trkpt lat="49.00242" lon="1.0891">
        <ele>27.53</ele>
        <time>2011-01-09T07:36:20Z</time>
      </trkpt>
      <trkpt lat="49.00242" lon="1.0891">
        <ele>29.94</ele>
        <time>2011-01-09T07:36:21Z</time>
      </trkpt>
      <trkpt lat="49.00242" lon="1.0891">
        <ele>28.5</ele>
        <time>2011-01-09T07:36:25Z</time>
      </trkpt>
      <trkpt lat="49.00242" lon="1.0891">
        <ele>29.94</ele>
        <time>2011-01-09T07:36:26Z</time>
      </trkpt>
      <trkpt lat="49.00242" lon="1.0891">
        <ele>33.3</ele>
        <time>2011-01-09T07:36:28Z</time>
      </trkpt>
      <trkpt lat="49.00242" lon="1.0891">
        <ele>29.46</ele>
        <time>2011-01-09T07:36:29Z</time>
      </trkpt>
      <trkpt lat="49.00242" lon="1.0891">
        <ele>28.98</ele>
        <time>2011-01-09T07:36:34Z</time>
      </trkpt>
      <trkpt lat="49.00242" lon="1.0891">
        <ele>32.82</ele>
        <time>2011-01-09T07:36:36Z</time>
      </trkpt>
      <trkpt lat="49.00242" lon="1.0891">
        <ele>29.94</ele>
        <time>2011-01-09T07:36:37Z</time>
      </trkpt>
      <trkpt lat="49.00242" lon="1.0891">
        <ele>31.38</ele>
        <time>2011-01-09T07:36:38Z</time>
      </trkpt>
      <trkpt lat="49.00242" lon="1.0891">
        <ele>28.02</ele>
        <time>2011-01-09T07:36:45Z</time>
      </trkpt>
      <trkpt lat="49.00242" lon="1.0891">
        <ele>31.86</ele>
        <time>2011-01-09T07:36:46Z</time>
      </trkpt>
      <trkpt lat="49.00242" lon="1.0891">
        <ele>32.34</ele>
        <time>2011-01-09T07:36:49Z</time>
      </trkpt>
      <trkpt lat="49.00242" lon="1.0891">
        <ele>28.98</ele>
        <time>2011-01-09T07:36:53Z</time>
      </trkpt>
      <trkpt lat="49.00242" lon="1.0891">
        <ele>28.5</ele>
        <time>2011-01-09T07:36:54Z</time>
      </trkpt>
      <trkpt lat="49.00242" lon="1.0891">
        <ele>30.42</ele>
        <time>2011-01-09T07:36:57Z</time>
      </trkpt>
      <trkpt lat="49.00242" lon="1.0891">
        <ele>29.46</ele>
        <time>2011-01-09T07:37:01Z</time>
      </trkpt>
      <trkpt lat="49.00242" lon="1.0891">
        <ele>31.38</ele>
        <time>2011-01-09T07:37:02Z</time>
      </trkpt>
      <trkpt lat="49.00242" lon="1.0891">
        <ele>28.5</ele>
        <time>2011-01-09T07:37:11Z</time>
      </trkpt>
      <trkpt lat="49.00242" lon="1.0891">
        <ele>30.9</ele>
        <time>2011-01-09T07:37:12Z</time>
      </trkpt>
      <trkpt lat="49.00242" lon="1.0891">
        <ele>33.78</ele>
        <time>2011-01-09T07:37:20Z</time>
      </trkpt>
      <trkpt lat="49.00242" lon="1.0891">
        <ele>29.46</ele>
        <time>2011-01-09T07:37:21Z</time>
      </trkpt>
      <trkpt lat="49.00242" lon="1.0891">
        <ele>31.38</ele>
        <time>2011-01-09T07:37:22Z</time>
      </trkpt>
      <trkpt lat="49.00242" lon="1.0891">
        <ele>29.94</ele>
        <time>2011-01-09T07:37:30Z</time>
      </trkpt>
      <trkpt lat="49.00242" lon="1.0891">
        <ele>28.5</ele>
        <time>2011-01-09T07:37:31Z</time>
      </trkpt>
      <trkpt lat="49.00242" lon="1.0891">
        <ele>31.86</ele>
        <time>2011-01-09T07:37:34Z</time>
      </trkpt>
      <trkpt lat="49.00242" lon="1.0891">
        <ele>27.53</ele>
        <time>2011-01-09T07:37:35Z</time>
      </trkpt>
      <trkpt lat="49.00242" lon="1.0891">
        <ele>31.38</ele>
        <time>2011-01-09T07:37:36Z</time>
      </trkpt>
      <trkpt lat="49.00242" lon="1.0891">
        <ele>34.26</ele>
        <time>2011-01-09T07:37:37Z</time>
      </trkpt>
      <trkpt lat="49.00242" lon="1.0891">
        <ele>34.26</ele>
        <time>2011-01-09T07:37:38Z</time>
      </trkpt>
      <trkpt lat="49.00242" lon="1.0891">
        <ele>29.94</ele>
        <time>2011-01-09T07:37:39Z</time>
      </trkpt>
      <trkpt lat="49.00242" lon="1.0891">
        <ele>33.3</ele>
        <time>2011-01-09T07:37:40Z</time>
      </trkpt>
      <trkpt lat="49.00242" lon="1.0891">
        <ele>33.3</ele>
        <time>2011-01-09T07:37:41Z</time>
      </trkpt>
      <trkpt lat="49.00242" lon="1.0891">
        <ele>26.09</ele>
        <time>2011-01-09T07:37:42Z</time>
      </trkpt>
      <trkpt lat="49.00242" lon="1.0891">
        <ele>28.98</ele>
        <time>2011-01-09T07:37:43Z</time>
      </trkpt>
      <trkpt lat="49.00242" lon="1.0891">
        <ele>31.38</ele>
        <time>2011-01-09T07:37:45Z</time>
      </trkpt>
      <trkpt lat="49.00242" lon="1.0891">
        <ele>33.78</ele>
        <time>2011-01-09T07:37:46Z</time>
      </trkpt>
      <trkpt lat="49.00242" lon="1.0891">
        <ele>29.94</ele>
        <time>2011-01-09T07:37:55Z</time>
      </trkpt>
      <trkpt lat="49.00242" lon="1.0891">
        <ele>35.71</ele>
        <time>2011-01-09T07:37:56Z</time>
      </trkpt>
      <trkpt lat="49.00242" lon="1.0891">
        <ele>30.9</ele>
        <time>2011-01-09T07:37:57Z</time>
      </trkpt>
      <trkpt lat="49.00242" lon="1.0891">
        <ele>34.26</ele>
        <time>2011-01-09T07:37:59Z</time>
      </trkpt>
      <trkpt lat="49.00242" lon="1.0891">
        <ele>35.23</ele>
        <time>2011-01-09T07:38:00Z</time>
      </trkpt>
      <trkpt lat="49.00242" lon="1.0891">
        <ele>33.78</ele>
        <time>2011-01-09T07:38:01Z</time>
      </trkpt>
      <trkpt lat="49.00242" lon="1.0891">
        <ele>36.67</ele>
        <time>2011-01-09T07:38:04Z</time>
      </trkpt>
      <trkpt lat="49.00242" lon="1.0891">
        <ele>31.86</ele>
        <time>2011-01-09T07:38:05Z</time>
      </trkpt>
      <trkpt lat="49.00242" lon="1.0891">
        <ele>32.82</ele>
        <time>2011-01-09T07:38:12Z</time>
      </trkpt>
      <trkpt lat="49.00242" lon="1.0891">
        <ele>31.38</ele>
        <time>2011-01-09T07:38:13Z</time>
      </trkpt>
      <trkpt lat="49.00242" lon="1.0891">
        <ele>33.78</ele>
        <time>2011-01-09T07:38:15Z</time>
      </trkpt>
      <trkpt lat="49.00242" lon="1.0891">
        <ele>36.67</ele>
        <time>2011-01-09T07:38:17Z</time>
      </trkpt>
      <trkpt lat="49.00242" lon="1.0891">
        <ele>30.42</ele>
        <time>2011-01-09T07:38:18Z</time>
      </trkpt>
      <trkpt lat="49.00242" lon="1.0891">
        <ele>39.07</ele>
        <time>2011-01-09T07:38:25Z</time>
      </trkpt>
      <trkpt lat="49.00242" lon="1.0891">
        <ele>40.03</ele>
        <time>2011-01-09T07:38:28Z</time>
      </trkpt>
      <trkpt lat="49.00242" lon="1.0891">
        <ele>36.67</ele>
        <time>2011-01-09T07:38:29Z</time>
      </trkpt>
      <trkpt lat="49.00242" lon="1.0891">
        <ele>42.44</ele>
        <time>2011-01-09T07:38:30Z</time>
      </trkpt>
      <trkpt lat="49.00242" lon="1.0891">
        <ele>35.71</ele>
        <time>2011-01-09T07:38:31Z</time>
      </trkpt>
      <trkpt lat="49.00242" lon="1.0891">
        <ele>40.99</ele>
        <time>2011-01-09T07:38:32Z</time>
      </trkpt>
      <trkpt lat="49.00242" lon="1.0891">
        <ele>39.07</ele>
        <time>2011-01-09T07:38:33Z</time>
      </trkpt>
      <trkpt lat="49.00242" lon="1.0891">
        <ele>42.44</ele>
        <time>2011-01-09T07:38:35Z</time>
      </trkpt>
      <trkpt lat="49.00242" lon="1.0891">
        <ele>39.55</ele>
        <time>2011-01-09T07:38:36Z</time>
      </trkpt>
      <trkpt lat="49.00242" lon="1.0891">
        <ele>39.07</ele>
        <time>2011-01-09T07:38:37Z</time>
      </trkpt>
      <trkpt lat="49.00242" lon="1.0891">
        <ele>36.67</ele>
        <time>2011-01-09T07:38:39Z</time>
      </trkpt>
      <trkpt lat="49.00242" lon="1.0891">
        <ele>42.44</ele>
        <time>2011-01-09T07:38:40Z</time>
      </trkpt>
      <trkpt lat="49.00242" lon="1.0891">
        <ele>38.59</ele>
        <time>2011-01-09T07:38:41Z</time>
      </trkpt>
      <trkpt lat="49.00242" lon="1.0891">
        <ele>44.36</ele>
        <time>2011-01-09T07:38:42Z</time>
      </trkpt>
      <trkpt lat="49.00242" lon="1.0891">
        <ele>41.95</ele>
        <time>2011-01-09T07:38:43Z</time>
      </trkpt>
      <trkpt lat="49.00242" lon="1.0891">
        <ele>45.8</ele>
        <time>2011-01-09T07:38:53Z</time>
      </trkpt>
      <trkpt lat="49.00242" lon="1.0891">
        <ele>41.95</ele>
        <time>2011-01-09T07:38:56Z</time>
      </trkpt>
      <trkpt lat="49.00242" lon="1.0891">
        <ele>47.24</ele>
        <time>2011-01-09T07:38:57Z</time>
      </trkpt>
      <trkpt lat="49.00242" lon="1.0891">
        <ele>42.44</ele>
        <time>2011-01-09T07:38:58Z</time>
      </trkpt>
    </trkseg>
  </trk>
</gpx>